sensor_id;sensor_type;location;lat;lon;timestamp;P1;durP1;ratioP1;P2;durP2;ratioP2
55819;SDS011;41747;45.002;39.032;2022-08-21T00:02:18;32.45;;;7.17;;
55819;SDS011;41747;45.002;39.032;2022-08-21T00:04:49;32.65;;;7.67;;
55819;SDS011;41747;45.002;39.032;2022-08-21T00:07:19;34.78;;;8.33;;
55819;SDS011;41747;45.002;39.032;2022-08-21T00:09:49;29.87;;;7.37;;
55819;SDS011;41747;45.002;39.032;2022-08-21T00:12:18;34.10;;;8.63;;
55819;SDS011;41747;45.002;39.032;2022-08-21T00:14:48;29.95;;;8.33;;
55819;SDS011;41747;45.002;39.032;2022-08-21T00:17:18;36.68;;;8.20;;
55819;SDS011;41747;45.002;39.032;2022-08-21T00:19:50;42.43;;;8.40;;
55819;SDS011;41747;45.002;39.032;2022-08-21T00:22:20;28.85;;;7.67;;
55819;SDS011;41747;45.002;39.032;2022-08-21T00:24:49;32.28;;;7.35;;
55819;SDS011;41747;45.002;39.032;2022-08-21T00:27:18;32.83;;;7.75;;
55819;SDS011;41747;45.002;39.032;2022-08-21T00:29:48;42.30;;;8.60;;
55819;SDS011;41747;45.002;39.032;2022-08-21T00:32:21;34.70;;;7.90;;
55819;SDS011;41747;45.002;39.032;2022-08-21T00:37:21;44.70;;;9.48;;
55819;SDS011;41747;45.002;39.032;2022-08-21T00:39:51;36.25;;;7.78;;
55819;SDS011;41747;45.002;39.032;2022-08-21T00:42:20;40.95;;;8.20;;
55819;SDS011;41747;45.002;39.032;2022-08-21T00:44:50;53.50;;;8.83;;
55819;SDS011;41747;45.002;39.032;2022-08-21T00:47:19;37.30;;;9.43;;
55819;SDS011;41747;45.002;39.032;2022-08-21T00:49:49;37.13;;;8.80;;
55819;SDS011;41747;45.002;39.032;2022-08-21T00:52:19;44.23;;;10.65;;
55819;SDS011;41747;45.002;39.032;2022-08-21T00:54:51;53.05;;;9.98;;
55819;SDS011;41747;45.002;39.032;2022-08-21T00:57:34;41.15;;;7.35;;
55819;SDS011;41747;45.002;39.032;2022-08-21T01:00:02;39.95;;;8.85;;
55819;SDS011;41747;45.002;39.032;2022-08-21T01:02:32;41.73;;;8.13;;
55819;SDS011;41747;45.002;39.032;2022-08-21T01:05:02;58.08;;;8.38;;
55819;SDS011;41747;45.002;39.032;2022-08-21T01:07:31;49.00;;;8.15;;
55819;SDS011;41747;45.002;39.032;2022-08-21T01:10:01;44.48;;;7.92;;
55819;SDS011;41747;45.002;39.032;2022-08-21T01:12:33;46.90;;;8.43;;
55819;SDS011;41747;45.002;39.032;2022-08-21T01:15:03;50.20;;;7.78;;
55819;SDS011;41747;45.002;39.032;2022-08-21T01:17:35;56.48;;;8.85;;
55819;SDS011;41747;45.002;39.032;2022-08-21T01:20:06;55.70;;;8.30;;
55819;SDS011;41747;45.002;39.032;2022-08-21T01:22:38;48.75;;;8.98;;
55819;SDS011;41747;45.002;39.032;2022-08-21T01:25:08;51.55;;;7.70;;
55819;SDS011;41747;45.002;39.032;2022-08-21T01:27:39;48.42;;;8.03;;
55819;SDS011;41747;45.002;39.032;2022-08-21T01:30:10;41.40;;;6.92;;
55819;SDS011;41747;45.002;39.032;2022-08-21T01:32:42;55.38;;;7.70;;
55819;SDS011;41747;45.002;39.032;2022-08-21T01:35:12;62.45;;;8.78;;
55819;SDS011;41747;45.002;39.032;2022-08-21T01:37:42;56.30;;;8.15;;
55819;SDS011;41747;45.002;39.032;2022-08-21T01:40:12;54.48;;;7.97;;
55819;SDS011;41747;45.002;39.032;2022-08-21T01:42:43;64.30;;;9.38;;
55819;SDS011;41747;45.002;39.032;2022-08-21T01:45:14;68.42;;;9.20;;
55819;SDS011;41747;45.002;39.032;2022-08-21T01:47:43;67.12;;;8.23;;
55819;SDS011;41747;45.002;39.032;2022-08-21T01:50:15;58.42;;;9.40;;
55819;SDS011;41747;45.002;39.032;2022-08-21T01:52:45;66.33;;;9.10;;
55819;SDS011;41747;45.002;39.032;2022-08-21T01:55:15;66.07;;;8.28;;
55819;SDS011;41747;45.002;39.032;2022-08-21T01:57:45;58.78;;;7.50;;
55819;SDS011;41747;45.002;39.032;2022-08-21T02:00:17;56.02;;;7.58;;
55819;SDS011;41747;45.002;39.032;2022-08-21T02:02:49;63.85;;;8.58;;
55819;SDS011;41747;45.002;39.032;2022-08-21T02:05:19;61.10;;;8.65;;
55819;SDS011;41747;45.002;39.032;2022-08-21T02:07:49;58.58;;;7.90;;
55819;SDS011;41747;45.002;39.032;2022-08-21T02:10:24;63.05;;;8.13;;
55819;SDS011;41747;45.002;39.032;2022-08-21T02:12:55;73.78;;;9.35;;
55819;SDS011;41747;45.002;39.032;2022-08-21T02:15:28;66.82;;;8.98;;
55819;SDS011;41747;45.002;39.032;2022-08-21T02:17:59;67.58;;;8.63;;
55819;SDS011;41747;45.002;39.032;2022-08-21T02:20:30;77.22;;;10.80;;
55819;SDS011;41747;45.002;39.032;2022-08-21T02:23:02;87.30;;;9.88;;
55819;SDS011;41747;45.002;39.032;2022-08-21T02:25:32;81.20;;;10.08;;
55819;SDS011;41747;45.002;39.032;2022-08-21T02:28:06;74.90;;;9.23;;
55819;SDS011;41747;45.002;39.032;2022-08-21T02:30:39;83.87;;;9.68;;
55819;SDS011;41747;45.002;39.032;2022-08-21T02:33:10;71.28;;;9.45;;
55819;SDS011;41747;45.002;39.032;2022-08-21T02:35:41;95.00;;;9.50;;
55819;SDS011;41747;45.002;39.032;2022-08-21T02:38:15;81.97;;;10.53;;
55819;SDS011;41747;45.002;39.032;2022-08-21T02:40:47;105.58;;;12.28;;
55819;SDS011;41747;45.002;39.032;2022-08-21T02:43:18;81.70;;;10.70;;
55819;SDS011;41747;45.002;39.032;2022-08-21T02:45:50;101.00;;;10.53;;
55819;SDS011;41747;45.002;39.032;2022-08-21T02:48:21;90.70;;;15.68;;
55819;SDS011;41747;45.002;39.032;2022-08-21T02:51:06;89.50;;;10.32;;
55819;SDS011;41747;45.002;39.032;2022-08-21T02:53:44;104.63;;;13.20;;
55819;SDS011;41747;45.002;39.032;2022-08-21T02:56:16;100.47;;;11.40;;
55819;SDS011;41747;45.002;39.032;2022-08-21T02:58:48;92.27;;;11.12;;
55819;SDS011;41747;45.002;39.032;2022-08-21T03:01:19;101.27;;;12.40;;
55819;SDS011;41747;45.002;39.032;2022-08-21T03:03:48;91.55;;;11.48;;
55819;SDS011;41747;45.002;39.032;2022-08-21T03:06:19;88.90;;;10.53;;
55819;SDS011;41747;45.002;39.032;2022-08-21T03:08:51;92.50;;;11.43;;
55819;SDS011;41747;45.002;39.032;2022-08-21T03:11:21;105.70;;;11.73;;
55819;SDS011;41747;45.002;39.032;2022-08-21T03:13:50;106.75;;;11.25;;
55819;SDS011;41747;45.002;39.032;2022-08-21T03:16:20;112.08;;;14.70;;
55819;SDS011;41747;45.002;39.032;2022-08-21T03:18:50;118.42;;;16.50;;
55819;SDS011;41747;45.002;39.032;2022-08-21T03:21:19;101.05;;;11.88;;
55819;SDS011;41747;45.002;39.032;2022-08-21T03:23:48;103.27;;;10.80;;
55819;SDS011;41747;45.002;39.032;2022-08-21T03:26:18;96.53;;;11.28;;
55819;SDS011;41747;45.002;39.032;2022-08-21T03:28:47;90.22;;;11.60;;
55819;SDS011;41747;45.002;39.032;2022-08-21T03:31:17;95.62;;;10.35;;
55819;SDS011;41747;45.002;39.032;2022-08-21T03:33:48;80.67;;;10.53;;
55819;SDS011;41747;45.002;39.032;2022-08-21T03:36:19;84.60;;;10.38;;
55819;SDS011;41747;45.002;39.032;2022-08-21T03:38:49;90.17;;;11.12;;
55819;SDS011;41747;45.002;39.032;2022-08-21T03:41:19;86.50;;;9.15;;
55819;SDS011;41747;45.002;39.032;2022-08-21T03:43:49;90.42;;;10.15;;
55819;SDS011;41747;45.002;39.032;2022-08-21T03:46:18;88.90;;;10.72;;
55819;SDS011;41747;45.002;39.032;2022-08-21T03:48:47;89.17;;;11.05;;
55819;SDS011;41747;45.002;39.032;2022-08-21T03:51:17;87.42;;;10.72;;
55819;SDS011;41747;45.002;39.032;2022-08-21T03:53:47;81.22;;;9.25;;
55819;SDS011;41747;45.002;39.032;2022-08-21T03:56:16;90.60;;;10.82;;
55819;SDS011;41747;45.002;39.032;2022-08-21T03:58:45;65.17;;;9.60;;
55819;SDS011;41747;45.002;39.032;2022-08-21T04:01:15;95.83;;;11.12;;
55819;SDS011;41747;45.002;39.032;2022-08-21T04:03:44;86.95;;;10.75;;
55819;SDS011;41747;45.002;39.032;2022-08-21T04:06:14;88.10;;;10.78;;
55819;SDS011;41747;45.002;39.032;2022-08-21T04:08:43;74.97;;;9.35;;
55819;SDS011;41747;45.002;39.032;2022-08-21T04:11:13;73.05;;;9.30;;
55819;SDS011;41747;45.002;39.032;2022-08-21T04:13:42;92.00;;;11.12;;
55819;SDS011;41747;45.002;39.032;2022-08-21T04:16:11;104.07;;;12.23;;
55819;SDS011;41747;45.002;39.032;2022-08-21T04:18:41;69.03;;;9.00;;
55819;SDS011;41747;45.002;39.032;2022-08-21T04:21:11;82.33;;;10.82;;
55819;SDS011;41747;45.002;39.032;2022-08-21T04:23:40;86.10;;;10.93;;
55819;SDS011;41747;45.002;39.032;2022-08-21T04:26:10;81.87;;;11.18;;
55819;SDS011;41747;45.002;39.032;2022-08-21T04:28:39;78.07;;;10.70;;
55819;SDS011;41747;45.002;39.032;2022-08-21T04:31:09;80.32;;;9.60;;
55819;SDS011;41747;45.002;39.032;2022-08-21T04:33:39;81.97;;;8.48;;
55819;SDS011;41747;45.002;39.032;2022-08-21T04:36:08;72.20;;;9.35;;
55819;SDS011;41747;45.002;39.032;2022-08-21T04:38:38;81.75;;;10.30;;
55819;SDS011;41747;45.002;39.032;2022-08-21T04:41:08;78.00;;;9.03;;
55819;SDS011;41747;45.002;39.032;2022-08-21T04:43:37;69.67;;;9.35;;
55819;SDS011;41747;45.002;39.032;2022-08-21T04:46:07;81.08;;;12.03;;
55819;SDS011;41747;45.002;39.032;2022-08-21T04:48:36;63.98;;;10.03;;
55819;SDS011;41747;45.002;39.032;2022-08-21T04:51:07;76.97;;;9.93;;
55819;SDS011;41747;45.002;39.032;2022-08-21T04:53:48;82.97;;;11.08;;
55819;SDS011;41747;45.002;39.032;2022-08-21T04:56:28;71.57;;;8.35;;
55819;SDS011;41747;45.002;39.032;2022-08-21T04:58:59;76.67;;;9.55;;
55819;SDS011;41747;45.002;39.032;2022-08-21T05:01:32;76.42;;;9.38;;
55819;SDS011;41747;45.002;39.032;2022-08-21T05:04:04;53.73;;;8.18;;
55819;SDS011;41747;45.002;39.032;2022-08-21T05:06:36;67.30;;;8.40;;
55819;SDS011;41747;45.002;39.032;2022-08-21T05:09:08;61.98;;;9.25;;
55819;SDS011;41747;45.002;39.032;2022-08-21T05:11:39;64.87;;;8.33;;
55819;SDS011;41747;45.002;39.032;2022-08-21T05:14:10;62.17;;;8.73;;
55819;SDS011;41747;45.002;39.032;2022-08-21T05:16:40;57.40;;;8.23;;
55819;SDS011;41747;45.002;39.032;2022-08-21T05:19:11;55.90;;;8.03;;
55819;SDS011;41747;45.002;39.032;2022-08-21T05:21:41;52.40;;;7.12;;
55819;SDS011;41747;45.002;39.032;2022-08-21T05:24:12;55.30;;;7.25;;
55819;SDS011;41747;45.002;39.032;2022-08-21T05:26:43;61.65;;;7.65;;
55819;SDS011;41747;45.002;39.032;2022-08-21T05:29:14;52.35;;;8.78;;
55819;SDS011;41747;45.002;39.032;2022-08-21T05:31:44;55.52;;;7.95;;
55819;SDS011;41747;45.002;39.032;2022-08-21T05:34:15;55.73;;;7.53;;
55819;SDS011;41747;45.002;39.032;2022-08-21T05:36:49;65.95;;;8.45;;
55819;SDS011;41747;45.002;39.032;2022-08-21T05:39:18;43.52;;;7.28;;
55819;SDS011;41747;45.002;39.032;2022-08-21T05:41:48;61.90;;;8.28;;
55819;SDS011;41747;45.002;39.032;2022-08-21T05:44:17;63.45;;;8.45;;
55819;SDS011;41747;45.002;39.032;2022-08-21T05:46:46;54.95;;;7.67;;
55819;SDS011;41747;45.002;39.032;2022-08-21T05:49:16;54.18;;;10.40;;
55819;SDS011;41747;45.002;39.032;2022-08-21T05:51:45;51.92;;;6.83;;
55819;SDS011;41747;45.002;39.032;2022-08-21T05:54:15;55.05;;;7.22;;
55819;SDS011;41747;45.002;39.032;2022-08-21T05:56:44;59.75;;;7.40;;
55819;SDS011;41747;45.002;39.032;2022-08-21T05:59:14;47.98;;;6.85;;
55819;SDS011;41747;45.002;39.032;2022-08-21T06:01:43;61.60;;;8.38;;
55819;SDS011;41747;45.002;39.032;2022-08-21T06:04:15;58.75;;;9.18;;
55819;SDS011;41747;45.002;39.032;2022-08-21T06:06:44;50.38;;;7.03;;
55819;SDS011;41747;45.002;39.032;2022-08-21T06:09:14;55.25;;;7.45;;
55819;SDS011;41747;45.002;39.032;2022-08-21T06:11:44;51.65;;;7.70;;
55819;SDS011;41747;45.002;39.032;2022-08-21T06:14:14;59.55;;;6.42;;
55819;SDS011;41747;45.002;39.032;2022-08-21T06:16:44;49.25;;;6.47;;
55819;SDS011;41747;45.002;39.032;2022-08-21T06:19:13;42.13;;;7.15;;
55819;SDS011;41747;45.002;39.032;2022-08-21T06:21:43;65.20;;;11.03;;
55819;SDS011;41747;45.002;39.032;2022-08-21T06:24:12;52.65;;;6.87;;
55819;SDS011;41747;45.002;39.032;2022-08-21T06:26:41;46.58;;;6.40;;
55819;SDS011;41747;45.002;39.032;2022-08-21T06:29:12;47.65;;;6.65;;
55819;SDS011;41747;45.002;39.032;2022-08-21T06:31:43;46.90;;;7.40;;
55819;SDS011;41747;45.002;39.032;2022-08-21T06:34:12;48.78;;;6.45;;
55819;SDS011;41747;45.002;39.032;2022-08-21T06:36:42;46.25;;;7.47;;
55819;SDS011;41747;45.002;39.032;2022-08-21T06:39:11;45.48;;;7.08;;
55819;SDS011;41747;45.002;39.032;2022-08-21T06:41:41;53.20;;;6.55;;
55819;SDS011;41747;45.002;39.032;2022-08-21T06:44:10;50.00;;;8.65;;
55819;SDS011;41747;45.002;39.032;2022-08-21T06:46:40;44.98;;;7.95;;
55819;SDS011;41747;45.002;39.032;2022-08-21T06:49:09;45.03;;;6.95;;
55819;SDS011;41747;45.002;39.032;2022-08-21T06:51:40;39.60;;;7.08;;
55819;SDS011;41747;45.002;39.032;2022-08-21T06:54:09;45.35;;;7.62;;
55819;SDS011;41747;45.002;39.032;2022-08-21T06:56:39;47.60;;;6.95;;
55819;SDS011;41747;45.002;39.032;2022-08-21T06:59:08;49.55;;;6.92;;
55819;SDS011;41747;45.002;39.032;2022-08-21T07:01:37;49.27;;;8.10;;
55819;SDS011;41747;45.002;39.032;2022-08-21T07:04:07;47.10;;;6.85;;
55819;SDS011;41747;45.002;39.032;2022-08-21T07:06:37;49.85;;;7.17;;
55819;SDS011;41747;45.002;39.032;2022-08-21T07:09:06;45.73;;;6.35;;
55819;SDS011;41747;45.002;39.032;2022-08-21T07:11:37;55.12;;;7.37;;
55819;SDS011;41747;45.002;39.032;2022-08-21T07:14:07;43.00;;;6.95;;
55819;SDS011;41747;45.002;39.032;2022-08-21T07:16:36;39.60;;;6.53;;
55819;SDS011;41747;45.002;39.032;2022-08-21T07:19:06;49.30;;;6.80;;
55819;SDS011;41747;45.002;39.032;2022-08-21T07:21:35;45.38;;;6.72;;
55819;SDS011;41747;45.002;39.032;2022-08-21T07:24:05;47.45;;;7.55;;
55819;SDS011;41747;45.002;39.032;2022-08-21T07:26:34;45.10;;;6.10;;
55819;SDS011;41747;45.002;39.032;2022-08-21T07:29:04;44.23;;;6.87;;
55819;SDS011;41747;45.002;39.032;2022-08-21T07:31:34;55.33;;;7.87;;
55819;SDS011;41747;45.002;39.032;2022-08-21T07:34:03;44.40;;;6.17;;
55819;SDS011;41747;45.002;39.032;2022-08-21T07:36:32;43.95;;;6.42;;
55819;SDS011;41747;45.002;39.032;2022-08-21T07:39:02;52.13;;;7.65;;
55819;SDS011;41747;45.002;39.032;2022-08-21T07:41:32;46.42;;;7.53;;
55819;SDS011;41747;45.002;39.032;2022-08-21T07:44:02;42.67;;;7.42;;
55819;SDS011;41747;45.002;39.032;2022-08-21T07:46:32;46.90;;;7.05;;
55819;SDS011;41747;45.002;39.032;2022-08-21T07:49:01;55.10;;;7.37;;
55819;SDS011;41747;45.002;39.032;2022-08-21T07:51:31;41.68;;;6.53;;
55819;SDS011;41747;45.002;39.032;2022-08-21T07:54:01;38.15;;;7.37;;
55819;SDS011;41747;45.002;39.032;2022-08-21T07:56:31;55.88;;;7.28;;
55819;SDS011;41747;45.002;39.032;2022-08-21T07:59:01;44.10;;;7.00;;
55819;SDS011;41747;45.002;39.032;2022-08-21T08:01:30;48.30;;;8.30;;
55819;SDS011;41747;45.002;39.032;2022-08-21T08:04:00;41.85;;;6.70;;
55819;SDS011;41747;45.002;39.032;2022-08-21T08:06:29;45.05;;;7.67;;
55819;SDS011;41747;45.002;39.032;2022-08-21T08:08:59;50.95;;;7.33;;
55819;SDS011;41747;45.002;39.032;2022-08-21T08:11:30;42.62;;;6.90;;
55819;SDS011;41747;45.002;39.032;2022-08-21T08:14:00;45.45;;;8.25;;
55819;SDS011;41747;45.002;39.032;2022-08-21T08:16:30;46.18;;;6.30;;
55819;SDS011;41747;45.002;39.032;2022-08-21T08:19:00;47.85;;;7.37;;
55819;SDS011;41747;45.002;39.032;2022-08-21T08:21:30;53.35;;;7.80;;
55819;SDS011;41747;45.002;39.032;2022-08-21T08:24:00;45.17;;;7.30;;
55819;SDS011;41747;45.002;39.032;2022-08-21T08:26:30;45.33;;;7.37;;
55819;SDS011;41747;45.002;39.032;2022-08-21T08:28:59;44.08;;;6.75;;
55819;SDS011;41747;45.002;39.032;2022-08-21T08:31:29;47.83;;;7.40;;
55819;SDS011;41747;45.002;39.032;2022-08-21T08:33:58;50.90;;;8.05;;
55819;SDS011;41747;45.002;39.032;2022-08-21T08:36:32;47.43;;;6.70;;
55819;SDS011;41747;45.002;39.032;2022-08-21T08:39:03;45.55;;;6.75;;
55819;SDS011;41747;45.002;39.032;2022-08-21T08:41:33;49.33;;;7.05;;
55819;SDS011;41747;45.002;39.032;2022-08-21T08:44:04;39.73;;;7.80;;
55819;SDS011;41747;45.002;39.032;2022-08-21T08:46:39;39.10;;;7.03;;
55819;SDS011;41747;45.002;39.032;2022-08-21T08:49:24;42.30;;;7.25;;
55819;SDS011;41747;45.002;39.032;2022-08-21T08:52:13;40.52;;;6.70;;
55819;SDS011;41747;45.002;39.032;2022-08-21T08:54:51;45.05;;;8.35;;
55819;SDS011;41747;45.002;39.032;2022-08-21T08:57:22;48.78;;;7.30;;
55819;SDS011;41747;45.002;39.032;2022-08-21T08:59:55;35.50;;;6.90;;
55819;SDS011;41747;45.002;39.032;2022-08-21T09:02:26;47.05;;;8.43;;
55819;SDS011;41747;45.002;39.032;2022-08-21T09:04:56;36.93;;;7.78;;
55819;SDS011;41747;45.002;39.032;2022-08-21T09:10:20;37.40;;;6.95;;
55819;SDS011;41747;45.002;39.032;2022-08-21T09:13:18;56.83;;;7.05;;
55819;SDS011;41747;45.002;39.032;2022-08-21T09:21:51;53.33;;;7.25;;
55819;SDS011;41747;45.002;39.032;2022-08-21T09:27:14;49.42;;;8.08;;
55819;SDS011;41747;45.002;39.032;2022-08-21T09:29:46;43.40;;;7.40;;
55819;SDS011;41747;45.002;39.032;2022-08-21T09:32:18;41.90;;;7.92;;
55819;SDS011;41747;45.002;39.032;2022-08-21T09:35:00;35.75;;;6.55;;
55819;SDS011;41747;45.002;39.032;2022-08-21T09:37:32;45.15;;;6.83;;
55819;SDS011;41747;45.002;39.032;2022-08-21T09:40:13;40.78;;;7.70;;
55819;SDS011;41747;45.002;39.032;2022-08-21T09:42:35;49.98;;;7.60;;
55819;SDS011;41747;45.002;39.032;2022-08-21T09:45:20;47.27;;;7.45;;
55819;SDS011;41747;45.002;39.032;2022-08-21T09:47:46;45.25;;;7.20;;
55819;SDS011;41747;45.002;39.032;2022-08-21T09:50:17;43.70;;;6.78;;
55819;SDS011;41747;45.002;39.032;2022-08-21T09:52:51;41.37;;;6.60;;
55819;SDS011;41747;45.002;39.032;2022-08-21T09:55:29;44.65;;;7.10;;
55819;SDS011;41747;45.002;39.032;2022-08-21T09:58:29;54.80;;;7.17;;
55819;SDS011;41747;45.002;39.032;2022-08-21T10:00:59;35.25;;;6.75;;
55819;SDS011;41747;45.002;39.032;2022-08-21T10:03:29;37.25;;;6.35;;
55819;SDS011;41747;45.002;39.032;2022-08-21T10:06:04;50.20;;;7.17;;
55819;SDS011;41747;45.002;39.032;2022-08-21T10:08:37;37.30;;;6.37;;
55819;SDS011;41747;45.002;39.032;2022-08-21T10:11:10;44.15;;;6.70;;
55819;SDS011;41747;45.002;39.032;2022-08-21T10:13:59;32.13;;;5.92;;
55819;SDS011;41747;45.002;39.032;2022-08-21T10:19:22;40.28;;;7.40;;
55819;SDS011;41747;45.002;39.032;2022-08-21T10:35:22;40.43;;;5.80;;
55819;SDS011;41747;45.002;39.032;2022-08-21T10:40:48;33.13;;;6.33;;
55819;SDS011;41747;45.002;39.032;2022-08-21T10:46:09;42.95;;;6.72;;
55819;SDS011;41747;45.002;39.032;2022-08-21T10:48:37;47.75;;;7.50;;
55819;SDS011;41747;45.002;39.032;2022-08-21T10:51:31;34.92;;;6.22;;
55819;SDS011;41747;45.002;39.032;2022-08-21T10:56:36;37.67;;;7.00;;
55819;SDS011;41747;45.002;39.032;2022-08-21T11:04:32;53.28;;;7.37;;
55819;SDS011;41747;45.002;39.032;2022-08-21T11:07:20;48.98;;;7.45;;
55819;SDS011;41747;45.002;39.032;2022-08-21T11:09:45;37.98;;;6.92;;
55819;SDS011;41747;45.002;39.032;2022-08-21T11:12:22;43.45;;;7.35;;
55819;SDS011;41747;45.002;39.032;2022-08-21T11:17:35;41.77;;;6.83;;
55819;SDS011;41747;45.002;39.032;2022-08-21T11:20:24;48.92;;;7.10;;
55819;SDS011;41747;45.002;39.032;2022-08-21T11:23:05;38.50;;;6.45;;
55819;SDS011;41747;45.002;39.032;2022-08-21T11:25:42;45.35;;;7.87;;
55819;SDS011;41747;45.002;39.032;2022-08-21T11:28:24;53.45;;;7.28;;
55819;SDS011;41747;45.002;39.032;2022-08-21T11:31:01;53.52;;;6.97;;
55819;SDS011;41747;45.002;39.032;2022-08-21T11:33:32;44.33;;;7.30;;
55819;SDS011;41747;45.002;39.032;2022-08-21T11:36:11;36.70;;;6.10;;
55819;SDS011;41747;45.002;39.032;2022-08-21T11:39:01;39.15;;;7.03;;
55819;SDS011;41747;45.002;39.032;2022-08-21T11:41:31;41.63;;;7.28;;
55819;SDS011;41747;45.002;39.032;2022-08-21T11:44:06;29.10;;;7.25;;
55819;SDS011;41747;45.002;39.032;2022-08-21T11:52:26;41.98;;;6.95;;
55819;SDS011;41747;45.002;39.032;2022-08-21T11:54:57;45.88;;;5.90;;
55819;SDS011;41747;45.002;39.032;2022-08-21T11:57:32;32.42;;;6.22;;
55819;SDS011;41747;45.002;39.032;2022-08-21T12:02:56;36.00;;;6.00;;
55819;SDS011;41747;45.002;39.032;2022-08-21T12:05:39;33.70;;;5.90;;
55819;SDS011;41747;45.002;39.032;2022-08-21T12:08:26;39.55;;;5.47;;
55819;SDS011;41747;45.002;39.032;2022-08-21T12:10:46;40.43;;;6.15;;
55819;SDS011;41747;45.002;39.032;2022-08-21T12:13:28;38.88;;;5.53;;
55819;SDS011;41747;45.002;39.032;2022-08-21T12:16:05;39.42;;;7.40;;
55819;SDS011;41747;45.002;39.032;2022-08-21T12:18:42;42.55;;;5.78;;
55819;SDS011;41747;45.002;39.032;2022-08-21T12:21:23;41.53;;;6.25;;
55819;SDS011;41747;45.002;39.032;2022-08-21T12:24:02;36.75;;;5.87;;
55819;SDS011;41747;45.002;39.032;2022-08-21T12:26:37;38.83;;;6.15;;
55819;SDS011;41747;45.002;39.032;2022-08-21T12:29:36;39.63;;;5.78;;
55819;SDS011;41747;45.002;39.032;2022-08-21T12:34:45;38.05;;;5.75;;
55819;SDS011;41747;45.002;39.032;2022-08-21T12:37:16;43.35;;;6.40;;
55819;SDS011;41747;45.002;39.032;2022-08-21T12:39:52;38.65;;;6.50;;
55819;SDS011;41747;45.002;39.032;2022-08-21T12:42:28;39.15;;;6.87;;
55819;SDS011;41747;45.002;39.032;2022-08-21T12:45:00;39.03;;;6.60;;
55819;SDS011;41747;45.002;39.032;2022-08-21T12:47:36;33.60;;;6.85;;
55819;SDS011;41747;45.002;39.032;2022-08-21T12:50:13;35.63;;;6.55;;
55819;SDS011;41747;45.002;39.032;2022-08-21T12:52:51;31.15;;;6.33;;
55819;SDS011;41747;45.002;39.032;2022-08-21T12:55:31;33.42;;;6.00;;
55819;SDS011;41747;45.002;39.032;2022-08-21T12:58:00;50.58;;;9.88;;
55819;SDS011;41747;45.002;39.032;2022-08-21T13:00:31;40.83;;;6.10;;
55819;SDS011;41747;45.002;39.032;2022-08-21T13:03:01;41.13;;;6.67;;
55819;SDS011;41747;45.002;39.032;2022-08-21T13:05:33;29.82;;;6.08;;
55819;SDS011;41747;45.002;39.032;2022-08-21T13:08:09;33.50;;;6.12;;
55819;SDS011;41747;45.002;39.032;2022-08-21T13:10:36;37.30;;;6.80;;
55819;SDS011;41747;45.002;39.032;2022-08-21T13:13:08;34.20;;;4.95;;
55819;SDS011;41747;45.002;39.032;2022-08-21T13:15:42;36.08;;;5.50;;
55819;SDS011;41747;45.002;39.032;2022-08-21T13:18:19;30.88;;;5.25;;
55819;SDS011;41747;45.002;39.032;2022-08-21T13:21:02;30.95;;;5.58;;
55819;SDS011;41747;45.002;39.032;2022-08-21T13:23:37;33.63;;;6.03;;
55819;SDS011;41747;45.002;39.032;2022-08-21T13:26:13;30.65;;;6.70;;
55819;SDS011;41747;45.002;39.032;2022-08-21T13:28:46;33.50;;;6.87;;
55819;SDS011;41747;45.002;39.032;2022-08-21T13:31:24;38.15;;;6.47;;
55819;SDS011;41747;45.002;39.032;2022-08-21T13:33:49;32.88;;;5.40;;
55819;SDS011;41747;45.002;39.032;2022-08-21T13:36:26;31.75;;;6.00;;
55819;SDS011;41747;45.002;39.032;2022-08-21T13:38:57;36.13;;;5.83;;
55819;SDS011;41747;45.002;39.032;2022-08-21T13:41:28;33.80;;;6.08;;
55819;SDS011;41747;45.002;39.032;2022-08-21T13:44:02;31.65;;;6.30;;
55819;SDS011;41747;45.002;39.032;2022-08-21T13:46:36;35.65;;;5.62;;
55819;SDS011;41747;45.002;39.032;2022-08-21T13:49:06;32.42;;;5.85;;
55819;SDS011;41747;45.002;39.032;2022-08-21T13:51:37;27.45;;;6.05;;
55819;SDS011;41747;45.002;39.032;2022-08-21T13:54:23;32.73;;;5.30;;
55819;SDS011;41747;45.002;39.032;2022-08-21T13:56:55;32.38;;;5.65;;
55819;SDS011;41747;45.002;39.032;2022-08-21T13:59:26;42.05;;;6.85;;
55819;SDS011;41747;45.002;39.032;2022-08-21T14:01:58;33.13;;;6.10;;
55819;SDS011;41747;45.002;39.032;2022-08-21T14:04:43;29.27;;;4.65;;
55819;SDS011;41747;45.002;39.032;2022-08-21T14:07:15;34.58;;;5.08;;
55819;SDS011;41747;45.002;39.032;2022-08-21T14:09:46;31.75;;;5.50;;
55819;SDS011;41747;45.002;39.032;2022-08-21T14:12:19;28.10;;;5.22;;
55819;SDS011;41747;45.002;39.032;2022-08-21T14:14:48;33.50;;;5.60;;
55819;SDS011;41747;45.002;39.032;2022-08-21T14:17:27;37.50;;;5.78;;
55819;SDS011;41747;45.002;39.032;2022-08-21T14:20:05;28.42;;;5.60;;
55819;SDS011;41747;45.002;39.032;2022-08-21T14:22:38;37.38;;;5.50;;
55819;SDS011;41747;45.002;39.032;2022-08-21T14:25:13;36.40;;;6.83;;
55819;SDS011;41747;45.002;39.032;2022-08-21T14:30:31;32.95;;;4.92;;
55819;SDS011;41747;45.002;39.032;2022-08-21T14:33:03;27.98;;;5.72;;
55819;SDS011;41747;45.002;39.032;2022-08-21T14:35:33;41.37;;;7.20;;
55819;SDS011;41747;45.002;39.032;2022-08-21T14:38:11;35.17;;;7.50;;
55819;SDS011;41747;45.002;39.032;2022-08-21T14:40:36;34.18;;;6.12;;
55819;SDS011;41747;45.002;39.032;2022-08-21T14:43:05;32.42;;;5.65;;
55819;SDS011;41747;45.002;39.032;2022-08-21T14:45:35;37.58;;;4.97;;
55819;SDS011;41747;45.002;39.032;2022-08-21T14:48:06;38.02;;;5.92;;
55819;SDS011;41747;45.002;39.032;2022-08-21T14:50:36;33.02;;;5.80;;
55819;SDS011;41747;45.002;39.032;2022-08-21T14:53:05;35.98;;;5.42;;
55819;SDS011;41747;45.002;39.032;2022-08-21T14:55:36;34.33;;;5.62;;
55819;SDS011;41747;45.002;39.032;2022-08-21T14:58:10;34.85;;;5.90;;
55819;SDS011;41747;45.002;39.032;2022-08-21T15:00:40;39.58;;;6.40;;
55819;SDS011;41747;45.002;39.032;2022-08-21T15:03:10;35.70;;;6.22;;
55819;SDS011;41747;45.002;39.032;2022-08-21T15:05:39;32.20;;;5.22;;
55819;SDS011;41747;45.002;39.032;2022-08-21T15:08:09;33.20;;;5.30;;
55819;SDS011;41747;45.002;39.032;2022-08-21T15:10:38;33.00;;;5.72;;
55819;SDS011;41747;45.002;39.032;2022-08-21T15:13:08;29.65;;;5.10;;
55819;SDS011;41747;45.002;39.032;2022-08-21T15:15:41;34.80;;;5.15;;
55819;SDS011;41747;45.002;39.032;2022-08-21T15:18:12;33.13;;;5.75;;
55819;SDS011;41747;45.002;39.032;2022-08-21T15:20:41;30.82;;;5.22;;
55819;SDS011;41747;45.002;39.032;2022-08-21T15:23:11;36.33;;;6.20;;
55819;SDS011;41747;45.002;39.032;2022-08-21T15:25:46;34.43;;;5.33;;
55819;SDS011;41747;45.002;39.032;2022-08-21T15:28:12;38.55;;;6.03;;
55819;SDS011;41747;45.002;39.032;2022-08-21T15:30:44;35.88;;;5.80;;
55819;SDS011;41747;45.002;39.032;2022-08-21T15:33:13;32.10;;;6.67;;
55819;SDS011;41747;45.002;39.032;2022-08-21T15:35:43;30.45;;;5.80;;
55819;SDS011;41747;45.002;39.032;2022-08-21T15:38:13;29.60;;;4.95;;
55819;SDS011;41747;45.002;39.032;2022-08-21T15:40:43;26.90;;;5.60;;
55819;SDS011;41747;45.002;39.032;2022-08-21T15:43:24;41.70;;;5.87;;
55819;SDS011;41747;45.002;39.032;2022-08-21T15:45:55;35.78;;;6.58;;
55819;SDS011;41747;45.002;39.032;2022-08-21T15:48:25;38.67;;;5.90;;